メインページ
METAR-TAF:

METAR-TAF

空港 :

フジャイラ国際空港

フジャイラ, アラブ首長国連邦

緯度: 25-06N, 経度: 056-20E, 海抜: 28m

現時点の気象観測

当レポートは46分前の03:00(UTC)に作成
北東の風 5kt
気温 23°C
湿度 83%
気圧 1014 hPa
視程: 8000m
高度2500ftの雲は散在している

METAR: OMFJ 250300Z 04005KT 8000 SCT025 23/20 Q1013 A2993

時間: 07:46 (03:46 UTC)

予報

当レポートは4時間46分前の23:00(UTC)に作成
予報は25日の 00時(UTC)から 26日の 06時(UTC)まで有効
北/北東の風 8kt
視程: 8000m
高度2500ftの雲はほとんどない
確率 30%
25日の 00時(UTC)から 25日の 12時(UTC)まで
変向風 13kt、最大25ktの突風を伴う
視程: 4000m
高度3000ftの雲はほとんどない, 塔状積雲.
高度4000ftの千切れ雲あり
弱いにわか雨
25日の 03時(UTC)から 25日の 05時(UTC)まで徐々に
北東の風 8kt
25日の 14時(UTC)から 25日の 16時(UTC)まで徐々に
変向風 3kt

TAF: OMFJ 242300Z 2500/2606 03008KT 8000 FEW025 PROB30 2500/2512 VRB13G25KT 4000 -SHRA FEW030TCU BKN040 BECMG 2503/2505 05008KT BECMG 2514/2516 VRB03KT

4,000以上の空港の気象観測と天気予報(METAR報とTAF報)

利用可能な観測所は地図上に黄色い丸と赤い丸で示す。

丸の上にカーソルを重ねると観測所名を参照できる。

次にクリックすると気象観測と天気予報を参照できる。

マップの切り替え:黒色「×」印の緑ボタンをクリックして拡大、「-」印の緑ボタンをクリックして縮小、緑色の三角印をクリックして隣りの地図に切り替え


METAR-TAF: